»·PEaware :: N123RG KSAN-KLGB

N123RG :: KSAN-KLGB

FLIGHT INFORMATION

Flight Status: Arrived
Operator: Privately registered:
United States
More flights under this callsign
Pilot: Anonymous 23223 (23223)
Aircraft: CESSNA 172 SKYHAWK
(C172)
More flights by this aircraft type
Origin: KSAN San Diego Intl-Lindbergh
United States
Destination: KLGB Long Beach
United States
More flights between these airports :: More routes between these airports
Route: +OCN V23 SLI
File this flight plan on PilotEdge
Remarks:
Altitude:
(Current/Filed)
4,000ft
Speed:
(Current/Filed)
135kts
Departed: 09-Feb-20 11:26 AM
Arrived: 09-Feb-20 12:02 PM
Distance/Time
Traveled:
81nm/0:36
Distance/Time
To Go:
Arrived

Flight Plot

Page will automatically refresh every two minutes.


Map Options




Map Legend


Flown Route
Filed Route
Departure Airport
Arrival Airport
Navaid (VOR, NDB)
Fix

Horizontal Profiles

Position Reports

Time Latitude Longitude Heading Altitude Ground
Speed
09-Feb-20 11:06 32.734050 -117.187621 179 18ft 0kts
09-Feb-20 11:07 32.734049 -117.187621 179 18ft 0kts
09-Feb-20 11:08 32.734049 -117.187621 179 18ft 0kts
09-Feb-20 11:09 32.734048 -117.187621 179 18ft 0kts
09-Feb-20 11:10 32.734048 -117.187621 179 18ft 0kts
09-Feb-20 11:11 32.734047 -117.187621 179 18ft 0kts
09-Feb-20 11:12 32.734047 -117.187621 179 18ft 0kts
09-Feb-20 11:13 32.734046 -117.187621 179 18ft 0kts
09-Feb-20 11:14 32.734046 -117.187621 179 18ft 0kts
09-Feb-20 11:15 32.734045 -117.187621 179 18ft 0kts
09-Feb-20 11:16 32.734044 -117.187621 179 18ft 0kts
09-Feb-20 11:17 32.734044 -117.187621 179 18ft 0kts
09-Feb-20 11:18 32.734043 -117.187621 179 18ft 0kts
09-Feb-20 11:19 32.734043 -117.187621 179 18ft 0kts
09-Feb-20 11:20 32.733779 -117.186917 105 18ft 10kts
09-Feb-20 11:21 32.732608 -117.181995 103 18ft 18kts
09-Feb-20 11:22 32.731126 -117.175744 105 18ft 15kts
09-Feb-20 11:23 32.730833 -117.175182 169 18ft 0kts
09-Feb-20 11:24 32.730241 -117.175329 210 18ft 8kts
09-Feb-20 11:25 32.736540 -117.196073 320 573ft 106kts
09-Feb-20 11:26 32.762027 -117.221457 325 1498ft 142kts
09-Feb-20 11:27 32.792500 -117.251750 326 2022ft 154kts
09-Feb-20 11:28 32.827290 -117.283037 328 2087ft 159kts
09-Feb-20 11:29 32.865518 -117.309238 335 2023ft 163kts
09-Feb-20 11:30 32.902276 -117.327452 350 2763ft 131kts
09-Feb-20 11:31 32.936317 -117.337083 352 3627ft 120kts
09-Feb-20 11:32 32.968174 -117.345659 353 4493ft 114kts
09-Feb-20 11:33 33.000621 -117.354078 355 5115ft 122kts
09-Feb-20 11:34 33.033899 -117.362936 352 5717ft 121kts
09-Feb-20 11:35 33.068276 -117.371826 352 6027ft 138kts
09-Feb-20 11:36 33.106124 -117.381640 354 6015ft 149kts
09-Feb-20 11:37 33.148609 -117.392811 352 6013ft 150kts
09-Feb-20 11:38 33.189460 -117.403623 352 6012ft 150kts
09-Feb-20 11:39 33.230524 -117.414547 352 6013ft 150kts
09-Feb-20 11:40 33.264097 -117.443948 317 6018ft 154kts
09-Feb-20 11:41 33.294509 -117.479666 318 6015ft 154kts
09-Feb-20 11:42 33.325536 -117.515887 318 6013ft 154kts
09-Feb-20 11:43 33.356191 -117.551584 318 6014ft 154kts
09-Feb-20 11:44 33.386940 -117.587460 318 6015ft 154kts
09-Feb-20 11:45 33.417548 -117.623241 318 6012ft 153kts
09-Feb-20 11:46 33.448277 -117.659194 318 6013ft 154kts
09-Feb-20 11:47 33.478943 -117.695130 319 6012ft 154kts
09-Feb-20 11:48 33.509511 -117.731098 318 6016ft 153kts
09-Feb-20 11:49 33.540557 -117.766338 329 6025ft 152kts
09-Feb-20 11:50 33.581151 -117.794810 333 5134ft 177kts
09-Feb-20 11:51 33.624325 -117.824280 333 4179ft 176kts
09-Feb-20 11:52 33.656450 -117.860821 285 3974ft 161kts
09-Feb-20 11:53 33.667484 -117.916076 283 3296ft 173kts
09-Feb-20 11:54 33.681147 -117.963094 286 2998ft 128kts
09-Feb-20 11:55 33.693911 -117.999221 303 3013ft 113kts
09-Feb-20 11:56 33.715378 -118.028204 316 3017ft 117kts
09-Feb-20 11:57 33.739581 -118.057716 310 2476ft 128kts
09-Feb-20 11:58 33.765236 -118.087763 310 1270ft 130kts
09-Feb-20 11:59 33.786837 -118.116119 310 708ft 123kts
09-Feb-20 12:00 33.809559 -118.141419 320 142ft 101kts
09-Feb-20 12:01 33.821740 -118.156134 309 63ft 25kts
09-Feb-20 12:02 33.821942 -118.157276 225 63ft 0kts
09-Feb-20 12:03 33.821942 -118.157276 225 63ft 0kts
09-Feb-20 12:04 33.819762 -118.157342 181 63ft 13kts
09-Feb-20 12:05 33.817879 -118.158217 5 63ft 0kts

Navigation Log

Ident Type
Flight plan parsing failed, navigation log unavailable